createdAt,value
2022-11-29T00:01:40.886Z,41.95
2022-11-29T00:04:07.894Z,40.67
2022-11-29T00:06:36.213Z,41.22
2022-11-29T00:09:06.715Z,41.63
2022-11-29T00:11:56.803Z,40.38
2022-11-29T00:14:24.950Z,40.42
2022-11-29T00:16:57.345Z,40.00
2022-11-29T00:19:24.306Z,40.03
2022-11-29T00:21:51.442Z,41.15
2022-11-29T00:24:18.518Z,40.45
2022-11-29T00:26:45.464Z,39.25
2022-11-29T00:29:13.287Z,39.80
2022-11-29T00:31:40.564Z,39.13
2022-11-29T00:34:07.812Z,38.65
2022-11-29T00:36:35.498Z,39.20
2022-11-29T00:39:04.277Z,37.92
2022-11-29T00:41:31.635Z,37.97
2022-11-29T00:43:58.627Z,39.20
2022-11-29T00:46:25.650Z,39.13
2022-11-29T00:48:52.797Z,37.47
2022-11-29T00:51:19.769Z,40.40
2022-11-29T00:53:46.765Z,40.50
2022-11-29T00:56:13.790Z,39.58
2022-11-29T00:58:43.535Z,37.10
2022-11-29T01:01:11.235Z,37.58
2022-11-29T01:03:38.290Z,38.90
2022-11-29T01:06:08.259Z,37.90
2022-11-29T01:08:35.863Z,36.38
2022-11-29T01:11:18.764Z,35.92
2022-11-29T01:13:45.963Z,36.08
2022-11-29T01:16:14.436Z,33.88
2022-11-29T01:18:41.983Z,33.10
2022-11-29T01:21:12.436Z,34.42
2022-11-29T01:23:40.147Z,32.50
2022-11-29T01:26:09.815Z,32.55
2022-11-29T01:28:37.870Z,31.60
2022-11-29T01:31:13.838Z,33.72
2022-11-29T01:33:41.356Z,33.10
2022-11-29T01:36:09.562Z,32.33
2022-11-29T01:38:36.826Z,32.20
2022-11-29T01:41:13.423Z,32.88
2022-11-29T01:44:00.999Z,32.70
2022-11-29T01:46:36.366Z,30.63
2022-11-29T01:49:15.946Z,29.98
2022-11-29T01:51:46.355Z,30.15
2022-11-29T01:54:14.127Z,30.90
2022-11-29T01:56:42.027Z,30.45
2022-11-29T01:59:14.987Z,30.02
2022-11-29T02:01:42.489Z,28.38
2022-11-29T02:04:09.613Z,26.00
2022-11-29T02:06:37.425Z,26.85
2022-11-29T02:09:04.793Z,24.27
2022-11-29T02:11:59.241Z,26.13
2022-11-29T02:14:48.650Z,26.98
2022-11-29T02:17:53.086Z,24.27
2022-11-29T02:20:57.318Z,26.73
2022-11-29T02:24:01.976Z,25.77
2022-11-29T02:27:06.176Z,25.50
2022-11-29T02:30:10.365Z,25.50
2022-11-29T02:33:01.406Z,24.65
2022-11-29T02:35:38.876Z,20.65
2022-11-29T02:38:08.596Z,27.00
2022-11-29T02:40:55.767Z,25.08
2022-11-29T02:43:44.478Z,25.42
2022-11-29T02:46:25.176Z,24.48
2022-11-29T02:49:16.793Z,24.73
2022-11-29T02:52:03.222Z,24.25
2022-11-29T02:55:07.418Z,24.00
2022-11-29T02:57:45.687Z,25.33
2022-11-29T03:00:19.054Z,25.08
2022-11-29T03:03:02.119Z,24.50
2022-11-29T03:05:42.085Z,26.40
2022-11-29T03:08:23.715Z,26.80
2022-11-29T03:10:56.748Z,26.60
2022-11-29T03:13:29.364Z,27.20
2022-11-29T03:16:13.388Z,25.55
2022-11-29T03:18:52.096Z,26.63
2022-11-29T03:21:30.453Z,25.58
2022-11-29T03:24:00.853Z,24.73
2022-11-29T03:26:35.168Z,24.83
2022-11-29T03:29:10.015Z,23.33
2022-11-29T03:31:42.512Z,24.70
2022-11-29T03:34:21.579Z,22.58
2022-11-29T03:37:39.748Z,25.10
2022-11-29T03:40:12.265Z,23.50
2022-11-29T03:42:53.144Z,22.48
2022-11-29T03:45:28.623Z,21.95
2022-11-29T03:48:15.593Z,22.35
2022-11-29T03:50:52.027Z,23.13
2022-11-29T03:53:31.245Z,21.42
2022-11-29T03:56:02.987Z,21.48
2022-11-29T03:59:06.937Z,21.80
2022-11-29T04:02:11.119Z,21.00
2022-11-29T04:05:12.428Z,21.02
2022-11-29T04:07:50.103Z,20.67
2022-11-29T04:10:20.297Z,21.52
2022-11-29T04:13:24.655Z,20.58
2022-11-29T04:15:57.496Z,19.98
2022-11-29T04:18:45.864Z,20.48
2022-11-29T04:21:21.597Z,21.58
2022-11-29T04:23:57.722Z,19.80
2022-11-29T04:26:43.531Z,20.85
2022-11-29T04:29:20.135Z,21.25
2022-11-29T04:32:21.102Z,21.55
2022-11-29T04:35:25.268Z,21.42
2022-11-29T04:38:15.439Z,21.05
2022-11-29T04:40:48.186Z,20.60
2022-11-29T04:43:52.768Z,20.15
2022-11-29T04:46:38.440Z,19.88
2022-11-29T04:49:37.703Z,19.95
2022-11-29T04:52:10.661Z,20.38
2022-11-29T04:55:03.795Z,20.25
2022-11-29T04:57:30.854Z,18.45
2022-11-29T05:00:10.213Z,19.83
2022-11-29T05:03:00.151Z,20.00
2022-11-29T05:05:52.359Z,20.27
2022-11-29T05:11:15.183Z,20.30
2022-11-29T05:13:53.567Z,19.77
2022-11-29T05:16:42.038Z,19.08
2022-11-29T05:19:33.546Z,18.83
2022-11-29T05:22:00.408Z,20.00
2022-11-29T05:24:46.441Z,19.83
2022-11-29T05:27:32.018Z,20.48
2022-11-29T05:30:02.814Z,20.45
2022-11-29T05:33:15.884Z,20.98
2022-11-29T05:35:55.145Z,20.08
2022-11-29T05:38:44.419Z,19.75
2022-11-29T05:41:17.397Z,21.08
2022-11-29T05:43:44.240Z,22.38
2022-11-29T05:46:36.788Z,20.75
2022-11-29T05:49:09.598Z,21.73
2022-11-29T05:51:45.149Z,21.63
2022-11-29T05:54:26.863Z,21.77
2022-11-29T05:57:05.496Z,22.90
2022-11-29T05:59:34.569Z,22.77
2022-11-29T06:02:19.368Z,22.80
2022-11-29T06:04:58.443Z,20.60
2022-11-29T06:07:48.511Z,22.33
2022-11-29T06:10:20.479Z,22.25
2022-11-29T06:13:25.037Z,21.27
2022-11-29T06:16:22.967Z,22.42
2022-11-29T06:19:28.192Z,22.83
2022-11-29T06:22:23.834Z,24.02
2022-11-29T06:25:37.396Z,23.02
2022-11-29T06:28:41.839Z,22.02
2022-11-29T06:31:21.921Z,23.95
2022-11-29T06:33:56.538Z,23.55
2022-11-29T06:36:36.518Z,22.55
2022-11-29T06:39:04.168Z,22.27
2022-11-29T06:41:31.460Z,22.88
2022-11-29T06:43:58.979Z,22.60
2022-11-29T06:46:53.672Z,23.13
2022-11-29T06:49:28.000Z,23.08
2022-11-29T06:52:13.786Z,22.73
2022-11-29T06:55:01.957Z,22.60
2022-11-29T06:57:34.701Z,21.98
2022-11-29T07:00:20.360Z,24.08
2022-11-29T07:02:53.905Z,23.23
2022-11-29T07:05:29.142Z,23.20
2022-11-29T07:07:58.722Z,23.10
2022-11-29T07:10:27.252Z,24.25
2022-11-29T07:12:54.598Z,23.85
2022-11-29T07:15:23.261Z,22.63
2022-11-29T07:18:09.036Z,22.23
2022-11-29T07:21:06.538Z,22.77
2022-11-29T07:24:08.381Z,23.10
2022-11-29T07:26:58.025Z,22.65
2022-11-29T07:30:05.384Z,22.57
2022-11-29T07:32:50.781Z,24.33
2022-11-29T07:35:31.257Z,20.75
2022-11-29T07:38:01.230Z,24.13
2022-11-29T07:41:02.203Z,23.73
2022-11-29T07:43:40.078Z,23.27
2022-11-29T07:46:07.099Z,24.67
2022-11-29T07:48:34.029Z,24.33
2022-11-29T07:51:01.659Z,23.33
2022-11-29T07:53:30.360Z,23.95
2022-11-29T07:55:58.661Z,23.85
2022-11-29T07:58:25.721Z,22.85
2022-11-29T08:00:52.813Z,24.13
2022-11-29T08:03:20.033Z,24.00
2022-11-29T08:05:47.876Z,24.00
2022-11-29T08:08:15.499Z,22.70
2022-11-29T08:10:42.759Z,26.33
2022-11-29T08:13:09.758Z,25.40
2022-11-29T08:15:37.059Z,26.13
2022-11-29T08:18:04.576Z,24.35
2022-11-29T08:20:31.535Z,26.45
2022-11-29T08:22:59.518Z,26.75
2022-11-29T08:25:27.565Z,26.48
2022-11-29T08:27:54.880Z,26.52
2022-11-29T08:30:22.762Z,25.55
2022-11-29T08:32:51.687Z,26.95
2022-11-29T08:35:21.075Z,26.02
2022-11-29T08:37:48.158Z,24.73
2022-11-29T08:40:15.357Z,25.92
2022-11-29T08:42:42.342Z,25.67
2022-11-29T08:45:10.459Z,24.45
2022-11-29T08:47:38.335Z,25.80
2022-11-29T08:50:16.966Z,26.50
2022-11-29T08:53:05.137Z,26.05
2022-11-29T08:55:37.559Z,27.63
2022-11-29T08:58:10.039Z,25.67
2022-11-29T09:00:37.220Z,24.17
2022-11-29T09:03:24.708Z,26.98
2022-11-29T09:05:52.644Z,26.95
2022-11-29T09:08:20.165Z,27.10
2022-11-29T09:10:47.682Z,26.55
2022-11-29T09:13:15.113Z,26.42
2022-11-29T09:15:43.747Z,28.02
2022-11-29T09:18:11.496Z,28.65
2022-11-29T09:20:38.578Z,27.80
2022-11-29T09:23:05.691Z,28.40
2022-11-29T09:25:32.659Z,28.67
2022-11-29T09:28:02.895Z,28.80
2022-11-29T09:30:31.631Z,27.92
2022-11-29T09:33:05.249Z,28.30
2022-11-29T09:35:33.341Z,29.48
2022-11-29T09:38:00.424Z,28.77
2022-11-29T09:41:01.699Z,29.40
2022-11-29T09:43:34.701Z,28.20
2022-11-29T09:46:21.857Z,29.33
2022-11-29T09:49:16.540Z,27.85
2022-11-29T09:51:56.161Z,28.98
2022-11-29T09:54:49.678Z,30.33
2022-11-29T09:57:17.673Z,29.30
2022-11-29T09:59:48.424Z,29.80
2022-11-29T10:02:34.181Z,31.30
2022-11-29T10:05:07.813Z,30.55
2022-11-29T10:07:39.655Z,29.85
2022-11-29T10:10:19.566Z,30.33
2022-11-29T10:12:50.664Z,30.88
2022-11-29T10:15:27.600Z,32.00
2022-11-29T10:18:11.439Z,30.20
2022-11-29T10:20:44.650Z,32.92
2022-11-29T10:23:42.336Z,31.42
2022-11-29T10:26:11.554Z,30.23
2022-11-29T10:28:38.867Z,32.42
2022-11-29T10:31:22.638Z,30.98
2022-11-29T10:33:50.608Z,30.80
2022-11-29T10:36:22.739Z,30.63
2022-11-29T10:38:50.621Z,31.92
2022-11-29T10:41:21.481Z,32.28
2022-11-29T10:43:50.043Z,32.57
2022-11-29T10:46:36.913Z,32.38
2022-11-29T10:49:12.358Z,32.10
2022-11-29T10:51:39.520Z,31.38
2022-11-29T10:54:39.916Z,30.90
2022-11-29T10:57:24.861Z,32.67
2022-11-29T11:00:11.940Z,32.72
2022-11-29T11:02:39.078Z,31.13
2022-11-29T11:05:18.956Z,33.10
2022-11-29T11:07:47.620Z,33.10
2022-11-29T11:10:28.599Z,33.70
2022-11-29T11:13:20.917Z,33.42
2022-11-29T11:15:47.975Z,33.63
2022-11-29T11:18:24.082Z,34.00
2022-11-29T11:20:57.070Z,33.33
2022-11-29T11:23:27.253Z,33.63
2022-11-29T11:26:02.340Z,33.10
2022-11-29T11:28:32.206Z,32.20
2022-11-29T11:31:03.213Z,31.00
2022-11-29T11:33:34.280Z,33.95
2022-11-29T11:36:21.039Z,33.83
2022-11-29T11:38:56.767Z,34.78
2022-11-29T11:41:48.466Z,32.58
2022-11-29T11:44:48.385Z,32.85
2022-11-29T11:47:22.746Z,32.70
2022-11-29T11:50:04.813Z,33.35
2022-11-29T11:55:44.277Z,31.77
2022-11-29T11:58:14.401Z,34.03
2022-11-29T12:01:08.653Z,33.40
2022-11-29T12:03:53.212Z,34.72
2022-11-29T12:06:47.668Z,33.17
2022-11-29T12:09:22.887Z,34.20
2022-11-29T12:12:01.771Z,32.13
2022-11-29T12:14:38.499Z,34.85
2022-11-29T12:17:16.876Z,35.08
2022-11-29T12:20:17.758Z,33.47
2022-11-29T12:23:14.197Z,33.67
2022-11-29T12:26:13.740Z,32.50
2022-11-29T12:28:46.998Z,33.25
2022-11-29T12:31:25.986Z,32.78
2022-11-29T12:34:24.001Z,33.72
2022-11-29T12:36:50.979Z,34.25
2022-11-29T12:39:59.560Z,34.42
2022-11-29T12:42:26.521Z,32.50
2022-11-29T12:45:12.726Z,35.00
2022-11-29T12:47:52.248Z,34.50
2022-11-29T12:50:39.746Z,33.30
2022-11-29T12:53:12.560Z,33.28
2022-11-29T12:55:54.525Z,34.30
2022-11-29T12:58:48.402Z,33.30
2022-11-29T13:01:43.222Z,33.92
2022-11-29T13:04:20.821Z,34.40
2022-11-29T13:07:06.572Z,34.80
2022-11-29T13:09:51.335Z,33.28
2022-11-29T13:12:58.047Z,34.45
2022-11-29T13:15:47.019Z,33.42
2022-11-29T13:18:23.461Z,32.10
2022-11-29T13:20:56.610Z,34.78
2022-11-29T13:26:36.038Z,34.25
2022-11-29T13:29:03.864Z,35.08
2022-11-29T13:31:31.240Z,36.35
2022-11-29T13:34:09.305Z,38.10
2022-11-29T13:36:53.944Z,38.92
2022-11-29T13:39:42.882Z,38.58
2022-11-29T13:42:34.240Z,39.40
2022-11-29T13:45:32.210Z,38.35
2022-11-29T13:48:00.959Z,38.47
2022-11-29T13:50:46.559Z,37.95
2022-11-29T13:53:15.621Z,40.40
2022-11-29T13:56:00.002Z,39.03
2022-11-29T13:58:30.900Z,38.40
2022-11-29T14:01:03.259Z,37.20
2022-11-29T14:03:33.999Z,37.92
2022-11-29T14:06:22.339Z,39.65
2022-11-29T14:09:17.724Z,40.88
2022-11-29T14:12:07.903Z,39.30
2022-11-29T14:14:47.803Z,39.10
2022-11-29T14:17:47.542Z,39.47
2022-11-29T14:20:28.216Z,40.22
2022-11-29T14:23:04.409Z,41.13
2022-11-29T14:25:52.269Z,39.90
2022-11-29T14:28:22.817Z,39.97
2022-11-29T14:31:16.907Z,41.17
2022-11-29T14:33:48.407Z,39.67
2022-11-29T14:36:19.147Z,42.58
2022-11-29T14:39:05.482Z,41.67
2022-11-29T14:41:52.289Z,42.63
2022-11-29T14:44:26.472Z,40.90
2022-11-29T14:47:05.681Z,42.45
2022-11-29T14:49:40.408Z,41.78
2022-11-29T14:52:13.575Z,41.78
2022-11-29T14:55:04.619Z,42.42
2022-11-29T14:57:50.493Z,41.55
2022-11-29T15:00:17.764Z,41.50
2022-11-29T15:02:48.138Z,44.35
2022-11-29T15:05:20.580Z,41.85
2022-11-29T15:08:06.899Z,40.45
2022-11-29T15:10:37.856Z,41.35
2022-11-29T15:13:05.274Z,40.83
2022-11-29T15:16:08.866Z,40.13
2022-11-29T15:19:13.883Z,37.80
2022-11-29T15:22:07.557Z,40.17
2022-11-29T15:24:53.231Z,39.95
2022-11-29T15:27:20.781Z,39.58
2022-11-29T15:29:48.743Z,37.63
2022-11-29T15:32:22.635Z,38.42
2022-11-29T15:34:52.202Z,38.83
2022-11-29T15:37:39.353Z,37.90
2022-11-29T15:40:12.503Z,39.38
2022-11-29T15:43:10.029Z,40.50
2022-11-29T15:45:38.685Z,37.13
2022-11-29T15:48:18.093Z,40.00
2022-11-29T15:50:53.163Z,37.58
2022-11-29T15:53:33.119Z,37.42
2022-11-29T15:56:02.473Z,37.53
2022-11-29T15:58:31.952Z,36.60
2022-11-29T16:01:01.394Z,36.35
2022-11-29T16:03:33.892Z,36.53
2022-11-29T16:06:05.773Z,34.92
2022-11-29T16:11:02.094Z,33.40
2022-11-29T16:13:40.395Z,32.35
2022-11-29T16:16:15.694Z,31.83
2022-11-29T16:18:45.026Z,31.95
2022-11-29T16:21:29.192Z,33.80
2022-11-29T16:23:57.353Z,34.50
2022-11-29T16:26:27.917Z,33.13
2022-11-29T16:28:58.714Z,35.90
2022-11-29T16:31:37.511Z,34.63
2022-11-29T16:34:27.261Z,34.78
2022-11-29T16:37:06.806Z,34.35
2022-11-29T16:39:38.741Z,33.58
2022-11-29T16:45:09.518Z,33.10
2022-11-29T16:47:58.184Z,31.70
2022-11-29T16:50:27.529Z,33.25
2022-11-29T16:52:56.833Z,33.60
2022-11-29T16:55:24.500Z,34.28
2022-11-29T16:57:52.472Z,35.15
2022-11-29T17:00:29.618Z,35.63
2022-11-29T17:02:56.761Z,33.85
2022-11-29T17:05:23.862Z,36.05
2022-11-29T17:07:51.390Z,35.75
2022-11-29T17:10:22.899Z,34.72
2022-11-29T17:12:50.391Z,34.83
2022-11-29T17:15:17.672Z,35.40
2022-11-29T17:17:44.797Z,34.92
2022-11-29T17:20:13.688Z,33.67
2022-11-29T17:22:41.269Z,33.75
2022-11-29T17:25:08.678Z,33.47
2022-11-29T17:27:36.160Z,34.75
2022-11-29T17:30:04.600Z,36.20
2022-11-29T17:32:34.363Z,35.33
2022-11-29T17:35:01.351Z,34.85
2022-11-29T17:37:30.174Z,32.78
2022-11-29T17:39:57.513Z,31.70
2022-11-29T17:42:24.996Z,33.10
2022-11-29T17:44:52.074Z,32.03
2022-11-29T17:47:20.842Z,32.22
2022-11-29T17:49:48.432Z,33.45
2022-11-29T17:52:15.780Z,33.72
2022-11-29T17:54:43.093Z,33.90
2022-11-29T17:57:10.853Z,33.90
2022-11-29T17:59:37.819Z,36.20
2022-11-29T18:02:04.983Z,33.95
2022-11-29T18:04:32.042Z,35.80
2022-11-29T18:06:59.275Z,35.20
2022-11-29T18:09:26.354Z,34.38
2022-11-29T18:11:53.451Z,34.17
2022-11-29T18:14:24.187Z,35.88
2022-11-29T18:16:52.691Z,34.95
2022-11-29T18:19:22.236Z,35.10
2022-11-29T18:21:51.948Z,34.63
2022-11-29T18:24:21.558Z,36.38
2022-11-29T18:26:50.128Z,38.30
2022-11-29T18:29:20.620Z,35.33
2022-11-29T18:31:47.840Z,34.92
2022-11-29T18:34:15.227Z,34.90
2022-11-29T18:36:47.407Z,34.25
2022-11-29T18:39:19.140Z,34.83
2022-11-29T18:41:48.700Z,35.60
2022-11-29T18:44:17.694Z,34.30
2022-11-29T18:46:45.662Z,35.28
2022-11-29T18:49:16.108Z,33.75
2022-11-29T18:51:45.170Z,34.72
2022-11-29T18:54:13.650Z,34.50
2022-11-29T18:56:41.637Z,34.03
2022-11-29T18:59:17.303Z,33.58
2022-11-29T19:01:47.252Z,32.90
2022-11-29T19:04:19.620Z,33.35
2022-11-29T19:06:47.454Z,31.52
2022-11-29T19:09:21.301Z,34.22
2022-11-29T19:11:49.899Z,33.75
2022-11-29T19:14:17.553Z,34.75
2022-11-29T19:16:46.221Z,33.97
2022-11-29T19:19:13.492Z,32.75
2022-11-29T19:21:40.994Z,30.75
2022-11-29T19:24:14.292Z,31.48
2022-11-29T19:26:44.654Z,32.92
2022-11-29T19:29:13.275Z,33.33
2022-11-29T19:31:41.432Z,33.20
2022-11-29T19:34:09.052Z,34.78
2022-11-29T19:36:43.383Z,34.63
2022-11-29T19:39:13.122Z,33.45
2022-11-29T19:41:42.414Z,33.08
2022-11-29T19:44:09.718Z,31.77
2022-11-29T19:46:39.116Z,33.30
2022-11-29T19:49:07.307Z,31.30
2022-11-29T19:51:34.975Z,29.50
2022-11-29T19:54:04.105Z,32.78
2022-11-29T19:56:32.477Z,33.03
2022-11-29T19:59:00.043Z,31.55
2022-11-29T20:01:40.378Z,32.33
2022-11-29T20:04:09.834Z,31.88
2022-11-29T20:06:37.217Z,32.05
2022-11-29T20:09:04.783Z,31.23
2022-11-29T20:11:32.116Z,32.78
2022-11-29T20:14:01.892Z,32.58
2022-11-29T20:16:29.818Z,32.88
2022-11-29T20:18:57.576Z,30.65
2022-11-29T20:21:27.702Z,31.38
2022-11-29T20:24:00.195Z,32.35
2022-11-29T20:26:28.598Z,32.42
2022-11-29T20:28:55.816Z,31.05
2022-11-29T20:31:23.557Z,31.70
2022-11-29T20:33:52.771Z,31.95
2022-11-29T20:36:36.973Z,30.77
2022-11-29T20:39:07.661Z,30.88
2022-11-29T20:41:55.007Z,32.42
2022-11-29T20:44:40.335Z,33.42
2022-11-29T20:47:28.753Z,34.83
2022-11-29T20:49:56.353Z,32.53
2022-11-29T20:52:54.035Z,31.70
2022-11-29T20:55:21.194Z,31.77
2022-11-29T20:57:48.274Z,31.55
2022-11-29T21:00:16.140Z,32.97
2022-11-29T21:02:43.943Z,31.20
2022-11-29T21:05:11.334Z,30.38
2022-11-29T21:07:38.814Z,32.50
2022-11-29T21:10:06.649Z,31.15
2022-11-29T21:12:34.075Z,30.30
2022-11-29T21:15:01.514Z,32.28
2022-11-29T21:17:33.446Z,31.35
2022-11-29T21:20:01.833Z,30.17
2022-11-29T21:22:50.521Z,30.50
2022-11-29T21:25:20.813Z,31.25
2022-11-29T21:27:48.202Z,30.88
2022-11-29T21:30:23.551Z,30.70
2022-11-29T21:32:51.456Z,30.42
2022-11-29T21:35:18.633Z,29.10
2022-11-29T21:37:46.536Z,30.23
2022-11-29T21:40:14.657Z,29.33
2022-11-29T21:42:41.815Z,30.00
2022-11-29T21:45:15.101Z,31.83
2022-11-29T21:47:44.226Z,29.30
2022-11-29T21:50:12.761Z,30.23
2022-11-29T21:52:40.197Z,30.30
2022-11-29T21:55:07.628Z,31.73
2022-11-29T21:57:34.860Z,32.08
2022-11-29T22:00:02.237Z,29.50
2022-11-29T22:02:31.625Z,31.70
2022-11-29T22:04:58.793Z,31.02
2022-11-29T22:07:26.002Z,31.77
2022-11-29T22:09:53.099Z,31.60
2022-11-29T22:12:33.771Z,32.63
2022-11-29T22:15:01.779Z,33.15
2022-11-29T22:17:28.701Z,33.85
2022-11-29T22:19:55.698Z,32.53
2022-11-29T22:22:25.964Z,32.58
2022-11-29T22:24:54.917Z,32.35
2022-11-29T22:27:21.985Z,32.22
2022-11-29T22:29:49.040Z,33.75
2022-11-29T22:32:16.045Z,32.55
2022-11-29T22:34:42.989Z,32.03
2022-11-29T22:37:10.235Z,32.67
2022-11-29T22:39:37.187Z,31.27
2022-11-29T22:42:04.244Z,32.75
2022-11-29T22:44:31.493Z,32.28
2022-11-29T22:46:58.626Z,30.60
2022-11-29T22:49:25.745Z,31.83
2022-11-29T22:51:53.439Z,31.90
2022-11-29T22:54:20.520Z,30.25
2022-11-29T22:56:48.054Z,31.33
2022-11-29T22:59:15.280Z,31.35
2022-11-29T23:01:42.664Z,30.70
2022-11-29T23:04:11.457Z,30.60
2022-11-29T23:06:43.563Z,29.88
2022-11-29T23:09:15.280Z,31.48
2022-11-29T23:14:09.878Z,30.95
2022-11-29T23:16:36.994Z,30.75
2022-11-29T23:19:04.110Z,30.63
2022-11-29T23:21:33.903Z,31.92
2022-11-29T23:24:01.737Z,29.73
2022-11-29T23:26:39.009Z,30.70
2022-11-29T23:29:16.780Z,31.00
2022-11-29T23:31:44.055Z,32.15
2022-11-29T23:34:10.970Z,31.88
2022-11-29T23:36:38.090Z,33.50
2022-11-29T23:39:06.678Z,32.03
2022-11-29T23:41:35.637Z,31.67
2022-11-29T23:44:06.196Z,32.95
2022-11-29T23:46:34.815Z,31.25
2022-11-29T23:49:01.720Z,30.77
2022-11-29T23:51:28.677Z,31.83
2022-11-29T23:53:55.899Z,30.92
2022-11-29T23:56:23.233Z,30.75
2022-11-29T23:58:50.627Z,30.48
